Tiempo atmosférico en la estación meteorológica de Ballobar, Huesca (178 m.)



Fecha
DESCASC
Temp. máxima en grados centígrados (hora)
DESCASC
Temp. mínima en grados centígrados (hora)
DESCASC
Temp. media en grados centígrados
DESCASC
Racha de viento máxima en m/sg (hora)
DESCASC
Velocidad máxima media en intervalos de 10 minutos(hora)
DESCASC
Precipitaciones diarias en mm
DESCASC
Precipitaciones de 00:00 a 06:00 en mm
DESCASC
Precipitaciones de 06:00 a 12:00 en mm
DESCASC
Precipitaciones de 12:00 a 18:00 en mm
DESCASC
Precipitaciones de 18:00 a 24:00 en mm
DESCASC
16-01-2020 8 (17:30) -1.8 (08:50) 3.1 3.89 (13:20) 2.78 (13:20) 0 0 0 0 0
15-01-2020 1.9 (16:00) -1.5 (04:50) 0.2 3.33 (11:40) 1.94 (16:40) 0 0 0 0 0
14-01-2020 1 (16:30) -2 (07:50) -0.5 3.06 (02:30) 2.22 (02:30) 0 0 0 0 0
13-01-2020 1.1 (16:30) -0.8 (07:50) 0.2 3.06 (17:20) 1.94 (00:50) 0 0 0 0 0
12-01-2020 1.3 (17:10) -2.6 (-00:0) -0.6 3.61 (21:20) 2.22 (20:50) 0 0 0 0 0
11-01-2020 7.6 (16:30) -2.3 (-00:0) 2.6 5.28 (00:30) 4.17 (00:30) 0 0 0 0 0
10-01-2020 8.7 (15:10) 2 (00:00) 5.3 5.56 (15:20) 3.61 (15:30) 0 0 0 0 0
09-01-2020 4.5 (17:20) 1.8 (00:00) 3.1 4.44 (21:20) 3.33 (21:20) 0 0 0 0 0
08-01-2020 4.2 (16:00) 2.4 (00:00) 3.3 4.17 (10:40) 3.06 (10:40) 0 0 0 0 0
07-01-2020 3.9 (00:00) 2.3 (00:00) 3.1 3.61 (14:10) 2.5 (19:40) 0 0 0 0 0
06-01-2020 5.9 (15:00) 2.4 (00:00) 4.2 4.44 (01:10) 3.06 (01:20) 0 0 0 0 0
05-01-2020 5.2 (16:20) 3.2 (00:00) 4.2 3.89 (20:20) 2.78 (21:50) 0 0 0 0 0
04-01-2020 4.4 (15:50) 2.7 (00:00) 3.6 4.17 (17:10) 2.78 (17:00) 0 0 0 0 0
03-01-2020 3.9 (15:50) 1.1 (00:00) 2.5 4.72 (06:10) 3.61 (06:50) 0 0 0 0 0
02-01-2020 2.5 (23:30) 1.2 (00:00) 1.9 3.89 (23:20) 2.5 (23:20) 0 0 0 0 0
01-01-2020 4.1 (02:00) 1.9 (00:00) 3 5.28 (02:40) 3.61 (02:40) 0 0 0 0 0
31-12-2019 4.9 (14:00) 3.8 (00:00) 4.4 5 (01:00) 3.61 (01:30) 0 0 0 0 0
30-12-2019 -- (--) -- (--) -- -- (--) -- (--) -- 0 0 0 --
29-12-2019 4.6 (13:30) 3.4 (00:00) 4 3.61 (14:00) 1.94 (15:20) 0 0 0 0 0
28-12-2019 5.4 (00:00) 3 (00:00) 4.2 4.44 (05:40) 3.61 (05:40) 0 0 0 0 0
27-12-2019 6.8 (15:40) 2.9 (00:00) 4.9 3.89 (15:40) 2.78 (16:20) 0.2 0.2 0 0 0
26-12-2019 8.9 (13:30) 4.3 (00:00) 6.6 5.28 (14:10) 3.89 (14:10) 0 0 0 0 0
25-12-2019 7.3 (00:00) 2.9 (00:00) 5.1 3.61 (04:40) 2.22 (02:20) 0 0 0 0 0
24-12-2019 15.3 (14:30) 5.6 (00:00) 10.5 5.28 (07:40) 3.89 (07:30) 0 0 0 0 0
23-12-2019 15.9 (14:50) 8.9 (00:00) 12.4 15.28 (13:20) 10.83 (08:20) 0 0 0 0 0
22-12-2019 15.9 (14:30) 11 (00:00) 13.4 20.28 (00:40) 14.17 (01:20) 1.2 0 0 1.2 0
21-12-2019 15.5 (23:00) 9 (00:00) 12.3 18.61 (23:00) 10.83 (23:00) 3.4 0.2 0 3.2 0
20-12-2019 16.6 (14:30) 10.9 (00:00) 13.8 16.67 (00:50) 11.39 (00:50) 9.6 0 6.6 0 3

Gráficas

Temp. máximas Temp. mínimas Temp. medias Precipitaciones Rachas de viento máximas Velocidades máximas media en intervalos de 10 minutos

Datos horarios

Fecha y hora oficial Temperatura (ºC) Velocidad del viento (km/h) Dirección del viento Racha (km/h) Dirección de racha Precipitación (mm) Presión (hPa) Tendencia (hPa) Humedad (%)
2020-01-18 23:00:00 7.3 12 Este 17 Este 0 -- -- 88
2020-01-18 22:00:00 7 3 Nordeste 8 Noroeste 0 -- -- 90
2020-01-18 21:00:00 8.1 2 Sur 8 Noroeste 0.2 -- -- 85
2020-01-18 20:00:00 8.6 2 Sudoeste 7 Noroeste 0 -- -- 82
2020-01-18 19:00:00 9.6 4 Norte 10 Nordeste 0 -- -- 69
2020-01-18 18:00:00 10.2 6 Nordeste 10 Este 0 -- -- 66
2020-01-18 17:00:00 11 8 Este 14 Este 0 -- -- 61
2020-01-18 16:00:00 11.1 10 Este 14 Este 0 -- -- 61
2020-01-18 15:00:00 10.3 12 Este 17 Este 0 -- -- 63
2020-01-18 14:00:00 9.9 8 Este 15 Este 0 -- -- 66
2020-01-18 13:00:00 8.2 8 Este 12 Este 0 -- -- 71
2020-01-18 12:00:00 6.4 5 Este 14 Este 0 -- -- 77
2020-01-18 11:00:00 4.4 6 Nordeste 9 Este 0 -- -- 84
2020-01-18 10:00:00 3.2 8 Nordeste 12 Nordeste 0 -- -- 88
2020-01-18 09:00:00 2.4 6 Oeste 9 Oeste 0 -- -- 90
2020-01-18 08:00:00 2.9 4 Oeste 10 Nordeste 0 -- -- 87
2020-01-18 07:00:00 3.5 3 Norte 9 Oeste 0 -- -- 86
2020-01-18 06:00:00 3.7 7 Oeste 11 Oeste 0 -- -- 86
2020-01-18 05:00:00 3.3 6 Oeste 12 Sur 0 -- -- 84
2020-01-18 04:00:00 3 3 Noroeste 7 Sudeste 0 -- -- 82
2020-01-18 03:00:00 4 5 Norte 17 Norte 0 -- -- 75
2020-01-18 02:00:00 6.5 8 Norte 24 Sudoeste 0 -- -- 67
2020-01-18 01:00:00 7.6 19 Oeste 27 Sudoeste 0 -- -- 61
2020-01-18 00:00:00 7.6 14 Oeste 25 Oeste 0 -- -- 63
2020-01-17 23:00:00 7.9 14 Oeste 26 Oeste 0 -- -- 64
2020-01-17 22:00:00 8.6 14 Oeste 24 Oeste 0 -- -- 63
2020-01-17 21:00:00 9.3 18 Oeste 35 Oeste 0 -- -- 61
2020-01-17 20:00:00 10 22 Oeste 33 Oeste 0 -- -- 58
2020-01-17 19:00:00 10.1 14 Oeste 25 Sudoeste 0 -- -- 64
2020-01-17 18:00:00 11 12 Oeste 25 Oeste 0 -- -- 62
2020-01-17 17:00:00 13.1 15 Oeste 36 Oeste 0 -- -- 60
2020-01-17 16:00:00 14.2 23 Noroeste 44 Oeste 0 -- -- 58
2020-01-17 15:00:00 14.4 23 Noroeste 46 Oeste 0 -- -- 60
2020-01-17 14:00:00 15.4 25 Oeste 40 Oeste 0 -- -- 56
2020-01-17 13:00:00 12.1 7 Oeste 14 Nordeste 0 -- -- 79
2020-01-17 12:00:00 8.7 9 Nordeste 12 Nordeste 0 -- -- 90
2020-01-17 11:00:00 5.8 7 Nordeste 10 Nordeste 0 -- -- 97
2020-01-17 10:00:00 4.6 4 Nordeste 18 Oeste 0 -- -- 99
2020-01-17 09:00:00 3 13 Oeste 18 Oeste 0 -- -- 100
2020-01-17 08:00:00 2.2 5 Oeste 9 Oeste 0 -- -- 100
2020-01-17 07:00:00 2.5 6 Noroeste 12 Nordeste 0 -- -- 100
2020-01-17 06:00:00 2.8 5 Noroeste 10 Noroeste 0 -- -- 100
2020-01-17 05:00:00 2.2 5 Norte 8 Oeste 0 -- -- 99
2020-01-17 04:00:00 1 3 Oeste 8 Oeste 0 -- -- 99
2020-01-17 03:00:00 1.2 3 Oeste 7 Sur 0 -- -- 98
2020-01-17 02:00:00 1.5 0 Calma 8 Noroeste 0 -- -- 98
2020-01-17 01:00:00 2.4 4 Sudoeste 12 Oeste 0 -- -- 98
2020-01-17 00:00:00 2.2 2 Noroeste 9 Noroeste 0 -- -- 98
2020-01-16 23:00:00 2.3 2 Norte 7 Noroeste 0 -- -- 97
2020-01-16 22:00:00 2.8 0 Calma 6 Oeste 0 -- -- 96
2020-01-16 21:00:00 3.2 3 Oeste 7 Oeste 0 -- -- 95
2020-01-16 20:00:00 3.9 6 Oeste 9 Oeste 0 -- -- 93
2020-01-16 19:00:00 5.1 2 Oeste 6 Nordeste 0 -- -- 90
2020-01-16 18:00:00 7.2 6 Nordeste 11 Nordeste 0 -- -- 82
2020-01-16 17:00:00 7.9 8 Nordeste 11 Nordeste 0 -- -- 81
2020-01-16 16:00:00 7.4 9 Nordeste 13 Nordeste 0 -- -- 85
2020-01-16 15:00:00 6.2 10 Nordeste 13 Nordeste 0 -- -- 95
2020-01-16 14:00:00 4.7 9 Nordeste 14 Nordeste 0 -- -- 100
2020-01-16 13:00:00 2.4 9 Este 12 Este 0 -- -- 100
2020-01-16 12:00:00 0.4 6 Este 9 Este 0 -- -- 100
2020-01-16 11:00:00 -0.8 3 Este 7 Nordeste 0 -- -- 100
2020-01-16 10:00:00 -1.5 4 Nordeste 7 Este 0 -- -- 100
2020-01-16 09:00:00 -1.8 2 Sudoeste 8 Oeste 0 -- -- 100
2020-01-16 08:00:00 -1.2 4 Noroeste 8 Oeste 0 -- -- 100
2020-01-16 07:00:00 -1.2 0 Calma 5 Sur 0 -- -- 100
2020-01-16 06:00:00 -1.2 0 Calma 7 Noroeste 0 -- -- 100
2020-01-16 05:00:00 -1 2 Sur 6 Sudoeste 0 -- -- 100
2020-01-16 04:00:00 -0.8 3 Sudoeste 8 Oeste 0 -- -- 100
2020-01-16 03:00:00 -0.2 5 Oeste 9 Oeste 0 -- -- 100
2020-01-16 02:00:00 0.6 0 Calma 6 Sudoeste 0 -- -- 100
2020-01-16 01:00:00 0.6 2 Oeste 8 Sudoeste 0 -- -- 100
2020-01-16 00:00:00 0.8 3 Este 9 Sudeste 0 -- -- 100
2020-01-15 23:00:00 1.1 5 Este 10 Este 0 -- -- 100
2020-01-15 22:00:00 1.2 5 Nordeste 10 Norte 0 -- -- 100
2020-01-15 21:00:00 0.9 2 Sudeste 8 Este 0 -- -- 100
2020-01-15 20:00:00 1 2 Noroeste 5 Sudeste 0 -- -- 100
2020-01-15 19:00:00 1.3 4 Sur 6 Sur 0 -- -- 100
2020-01-15 18:00:00 1.6 4 Sudeste 11 Este 0 -- -- 100
2020-01-15 17:00:00 1.7 5 Nordeste 12 Este 0 -- -- 100
2020-01-15 16:00:00 1.9 6 Nordeste 10 Nordeste 0 -- -- 100
2020-01-15 15:00:00 1.4 4 Nordeste 9 Nordeste 0 -- -- 100
2020-01-15 14:00:00 1 2 Este 8 Nordeste 0 -- -- 100
2020-01-15 13:00:00 0.3 4 Nordeste 10 Norte 0 -- -- 100
2020-01-15 12:00:00 0 3 Nordeste 12 Noroeste 0 -- -- 100
2020-01-15 11:00:00 -0.5 4 Este 10 Este 0 -- -- 100
2020-01-15 10:00:00 -0.6 6 Este 10 Este 0 -- -- 100
2020-01-15 09:00:00 -0.8 5 Nordeste 9 Nordeste 0 -- -- 100
2020-01-15 08:00:00 -1.1 3 Nordeste 9 Este 0 -- -- 100
2020-01-15 07:00:00 -1.1 2 Norte 7 Este 0 -- -- 100
2020-01-15 06:00:00 -1.2 2 Sudeste 6 Noroeste 0 -- -- 100
2020-01-15 05:00:00 -1.4 4 Oeste 10 Oeste 0 -- -- 100
2020-01-15 04:00:00 -1.3 6 Oeste 10 Oeste 0 -- -- 100
2020-01-15 03:00:00 -1.1 4 Oeste 9 Oeste 0 -- -- 100
2020-01-15 02:00:00 -1 3 Noroeste 9 Noroeste 0 -- -- 100
2020-01-15 01:00:00 -0.8 4 Noroeste 9 Oeste 0 -- -- 100
2020-01-15 00:00:00 -0.5 3 Sur 10 Noroeste 0 -- -- 100
2020-01-14 23:00:00 -0.4 4 Oeste 8 Oeste 0 -- -- 100
2020-01-14 22:00:00 -0.2 5 Sudoeste 9 Este 0 -- -- 100
2020-01-14 21:00:00 0.2 3 Norte 7 Noroeste 0 -- -- 100
2020-01-14 20:00:00 0.2 4 Noroeste 8 Noroeste 0 -- -- 100
2020-01-14 19:00:00 0.4 4 Oeste 6 Oeste 0 -- -- 100
2020-01-14 18:00:00 0.6 4 Oeste 8 Noroeste 0 -- -- 100
2020-01-14 17:00:00 0.9 2 Nordeste 6 Noroeste 0 -- -- 100
2020-01-14 16:00:00 0.8 4 Noroeste 9 Este 0 -- -- 100
2020-01-14 15:00:00 0.6 4 Este 8 Sudeste 0 -- -- 100
2020-01-14 14:00:00 0.2 4 Este 8 Nordeste 0 -- -- 100
2020-01-14 13:00:00 -0.5 4 Nordeste 10 Nordeste 0 -- -- 100
2020-01-14 12:00:00 -1.1 4 Nordeste 8 Nordeste 0 -- -- 100
2020-01-14 11:00:00 -1.5 4 Sudoeste 7 Sudoeste 0 -- -- 100
2020-01-14 10:00:00 -1.9 5 Oeste 8 Oeste 0 -- -- 100
2020-01-14 09:00:00 -2 4 Sudoeste 9 Norte 0 -- -- 100
2020-01-14 08:00:00 -2 4 Noroeste 7 Oeste 0 -- -- 100
2020-01-14 07:00:00 -1.7 4 Sudoeste 9 Sudoeste 0 -- -- 100
2020-01-14 06:00:00 -1.4 4 Este 7 Sudeste 0 -- -- 100
2020-01-14 05:00:00 -1.5 2 Sudeste 7 Sur 0 -- -- 100
2020-01-14 04:00:00 -1.3 3 Oeste 9 Sudoeste 0 -- -- 100
2020-01-14 03:00:00 -1.1 3 Oeste 11 Sudoeste 0 -- -- 100
2020-01-14 02:00:00 -0.6 6 Oeste 10 Noroeste 0 -- -- 100
2020-01-14 01:00:00 -0.2 5 Noroeste 9 Noroeste 0 -- -- 100
2020-01-14 00:00:00 0.2 2 Nordeste 7 Noroeste 0 -- -- 100
2020-01-13 23:00:00 -0.2 3 Nordeste 8 Norte 0 -- -- 100
2020-01-13 22:00:00 0.1 4 Este 9 Este 0 -- -- 100
2020-01-13 21:00:00 0.5 5 Sudeste 8 Sudeste 0 -- -- 100
2020-01-13 20:00:00 0.7 3 Noroeste 6 Noroeste 0 -- -- 100
2020-01-13 19:00:00 0.8 0 Calma 9 Este 0 -- -- 100
2020-01-13 18:00:00 0.9 0 Calma 11 Oeste 0 -- -- 100
2020-01-13 17:00:00 0.9 4 Sudoeste 9 Este 0 -- -- 100
2020-01-13 16:00:00 0.9 3 Sudoeste 9 Noroeste 0 -- -- 100
2020-01-13 15:00:00 0.9 5 Noroeste 10 Noroeste 0 -- -- 100
2020-01-13 14:00:00 0.8 4 Este 9 Este 0 -- -- 100
2020-01-13 13:00:00 0.7 4 Nordeste 10 Nordeste 0 -- -- 100
2020-01-13 12:00:00 0.1 2 Sur 9 Este 0 -- -- 100
2020-01-13 11:00:00 -0.2 6 Este 10 Este 0 -- -- 100
2020-01-13 10:00:00 -0.5 0 Calma 7 Nordeste 0 -- -- 100
2020-01-13 09:00:00 -0.7 3 Norte 8 Nordeste 0 -- -- 100
2020-01-13 08:00:00 -0.8 2 Norte 10 Este 0 -- -- 100
2020-01-13 07:00:00 -0.6 5 Nordeste 9 Nordeste 0 -- -- 100
2020-01-13 06:00:00 -0.4 2 Este 6 Oeste 0 -- -- 100
2020-01-13 05:00:00 -0.2 0 Calma 8 Noroeste 0 -- -- 100
2020-01-13 04:00:00 -0.1 0 Calma 9 Oeste 0 -- -- 100
2020-01-13 03:00:00 0.1 4 Noroeste 10 Oeste 0 -- -- 100
2020-01-13 02:00:00 0.1 4 Oeste 9 Oeste 0 -- -- 100
2020-01-13 01:00:00 0.1 6 Oeste 10 Oeste 0 -- -- 100
2020-01-13 00:00:00 0.7 4 Noroeste 10 Norte 0 -- -- 100
2020-01-12 23:00:00 0.8 5 Oeste 10 Oeste 0 -- -- 100
2020-01-12 22:00:00 1 3 Noroeste 13 Noroeste 0 -- -- 100
2020-01-12 21:00:00 1 5 Noroeste 12 Noroeste 0 -- -- 100
2020-01-12 20:00:00 1.3 4 Noroeste 12 Oeste 0 -- -- 100
2020-01-12 19:00:00 1.2 3 Noroeste 11 Oeste 0 -- -- 100
2020-01-12 18:00:00 1.2 2 Este 8 Nordeste 0 -- -- 100
2020-01-12 17:00:00 1.2 5 Este 8 Este 0 -- -- 100
2020-01-12 16:00:00 1.2 2 Noroeste 7 Este 0 -- -- 100
2020-01-12 15:00:00 0.9 6 Nordeste 12 Nordeste 0 -- -- 100
2020-01-12 14:00:00 1 5 Nordeste 9 Nordeste 0 -- -- 100
2020-01-12 13:00:00 0.6 4 Nordeste 10 Oeste 0 -- -- 100
2020-01-12 12:00:00 -0.1 3 Norte 8 Nordeste 0 -- -- 100
2020-01-12 11:00:00 -0.6 4 Norte 8 Noroeste 0 -- -- 100
2020-01-12 10:00:00 -0.9 3 Nordeste 6 Norte 0 -- -- 100
2020-01-12 09:00:00 -1.1 2 Sur 6 Oeste 0 -- -- 100
2020-01-12 08:00:00 -1.2 3 Sudoeste 6 Sudoeste 0 -- -- 99
2020-01-12 07:00:00 -1.3 3 Sudoeste 5 Sudoeste 0 -- -- 99
2020-01-12 06:00:00 -1.7 2 Sudoeste 5 Sudoeste 0 -- -- 99
2020-01-12 05:00:00 -2.1 5 Sudoeste 6 Sudoeste 0 -- -- 99
2020-01-12 04:00:00 -2.4 0 Calma 3 Nordeste 0 -- -- 99
2020-01-12 03:00:00 -2.5 3 Noroeste 5 Oeste 0 -- -- 98
2020-01-12 02:00:00 -2 2 Oeste 6 Noroeste 0 -- -- 98
2020-01-12 01:00:00 -1.5 3 Oeste 9 Oeste 0 -- -- 98
2020-01-12 00:00:00 -0.8 5 Oeste 6 Noroeste 0 -- -- 98
2020-01-11 23:00:00 -0.1 3 Oeste 6 Oeste 0 -- -- 97
2020-01-11 22:00:00 1.3 5 Oeste 9 Noroeste 0 -- -- 97
2020-01-11 21:00:00 1.9 0 Calma 5 Oeste 0 -- -- 96
2020-01-11 20:00:00 2.7 4 Noroeste 5 Oeste 0 -- -- 94
2020-01-11 19:00:00 4.1 0 Calma 4 Oeste 0 -- -- 92
2020-01-11 18:00:00 6.2 0 Calma 11 Este 0 -- -- 86
2020-01-11 17:00:00 7.6 7 Este 12 Este 0 -- -- 84
2020-01-11 16:00:00 7 6 Nordeste 9 Este 0 -- -- 93
2020-01-11 15:00:00 5.3 3 Este 13 Nordeste 0 -- -- 100
2020-01-11 14:00:00 3.2 4 Nordeste 13 Este 0 -- -- 100
2020-01-11 13:00:00 1.7 5 Nordeste 10 Este 0 -- -- 100
2020-01-11 12:00:00 1 7 Nordeste 10 Nordeste 0 -- -- 100
2020-01-11 11:00:00 -0.5 6 Oeste 10 Sudoeste 0 -- -- 100
2020-01-11 10:00:00 -0.8 8 Sudoeste 12 Sudoeste 0 -- -- 100
2020-01-11 09:00:00 -1.4 4 Sudoeste 12 Sudoeste 0 -- -- 99
2020-01-11 08:00:00 -1.7 9 Sudoeste 12 Sudoeste 0 -- -- 99
2020-01-11 07:00:00 -2.1 5 Oeste 7 Sudoeste 0 -- -- 99
2020-01-11 06:00:00 -2.1 4 Este 6 Este 0 -- -- 98
2020-01-11 05:00:00 -1.4 0 Calma 6 Nordeste 0 -- -- 98
2020-01-11 04:00:00 -0.8 4 Noroeste 6 Nordeste 0 -- -- 98
2020-01-11 03:00:00 0.2 2 Norte 9 Noroeste 0 -- -- 97
2020-01-11 02:00:00 1.4 6 Oeste 14 Sudoeste 0 -- -- 97
2020-01-11 01:00:00 2.2 12 Oeste 19 Oeste 0 -- -- 97
2020-01-11 00:00:00 2 4 Noroeste 9 Oeste 0 -- -- 98
2020-01-10 23:00:00 3 8 Oeste 11 Oeste 0 -- -- 98
2020-01-10 22:00:00 2.7 6 Oeste 8 Noroeste 0 -- -- 98
2020-01-10 21:00:00 3.4 3 Oeste 8 Oeste 0 -- -- 96
2020-01-10 20:00:00 4.4 0 Calma 5 Oeste 0 -- -- 95
2020-01-10 19:00:00 5.7 3 Este 8 Nordeste 0 -- -- 92
2020-01-10 18:00:00 7.1 3 Este 9 Nordeste 0 -- -- 89
2020-01-10 17:00:00 8.4 6 Nordeste 11 Nordeste 0 -- -- 84
2020-01-10 16:00:00 8.5 9 Este 20 Este 0 -- -- 84
2020-01-10 15:00:00 8.6 11 Este 18 Nordeste 0 -- -- 84
2020-01-10 14:00:00 8.2 10 Este 14 Este 0 -- -- 86
2020-01-10 13:00:00 6.7 6 Este 10 Este 0 -- -- 96
2020-01-10 12:00:00 5.3 3 Este 13 Nordeste 0 -- -- 100
2020-01-10 11:00:00 4.7 4 Norte 15 Oeste 0 -- -- 99
2020-01-10 10:00:00 4.3 9 Sudoeste 13 Sudoeste 0 -- -- 100
2020-01-10 09:00:00 3.8 8 Oeste 15 Oeste 0 -- -- 99
2020-01-10 08:00:00 3.9 9 Nordeste 14 Nordeste 0 -- -- 99
2020-01-10 07:00:00 3.7 4 Oeste 9 Oeste 0 -- -- 100
2020-01-10 06:00:00 3.9 6 Oeste 15 Sudoeste 0 -- -- 100
2020-01-10 05:00:00 4.3 9 Sudoeste 18 Sudoeste 0 -- -- 100
2020-01-10 04:00:00 4.3 9 Sudoeste 14 Sudoeste 0 -- -- 100
2020-01-10 03:00:00 4.6 5 Sudoeste 8 Sur 0 -- -- 100
2020-01-10 02:00:00 4.3 6 Oeste 9 Oeste 0 -- -- 100
2020-01-10 01:00:00 4.3 4 Oeste 8 Sudoeste 0 -- -- 100
2020-01-10 00:00:00 4.3 0 Calma 6 Oeste 0 -- -- 100
2020-01-09 23:00:00 4.3 5 Oeste 12 Oeste 0 -- -- 100
2020-01-09 22:00:00 4.3 5 Nordeste 16 Oeste 0 -- -- 100
2020-01-09 21:00:00 4.4 9 Oeste 13 Oeste 0 -- -- 100
2020-01-09 20:00:00 4.5 4 Oeste 8 Noroeste 0 -- -- 100
2020-01-09 19:00:00 4.4 4 Norte 12 Noroeste 0 -- -- 100
2020-01-09 18:00:00 4.5 5 Noroeste 11 Noroeste 0 -- -- 100
2020-01-09 17:00:00 4.4 6 Este 11 Nordeste 0 -- -- 100
2020-01-09 16:00:00 4.2 8 Este 11 Nordeste 0 -- -- 100
2020-01-09 15:00:00 3.9 3 Nordeste 9 Nordeste 0 -- -- 100
2020-01-09 14:00:00 3.8 5 Nordeste 8 Nordeste 0 -- -- 100
2020-01-09 13:00:00 3.4 3 Este 5 Este 0 -- -- 100
2020-01-09 12:00:00 2.9 3 Este 6 Nordeste 0 -- -- 100
2020-01-09 11:00:00 2.4 4 Nordeste 9 Nordeste 0 -- -- 100
2020-01-09 10:00:00 2.1 5 Nordeste 8 Nordeste 0 -- -- 100
2020-01-09 09:00:00 1.9 0 Calma 6 Nordeste 0 -- -- 100
2020-01-09 08:00:00 1.9 0 Calma 5 Oeste 0 -- -- 100
2020-01-09 07:00:00 2 4 Sudoeste 8 Oeste 0 -- -- 100
2020-01-09 06:00:00 2.1 5 Oeste 8 Oeste 0 -- -- 100
2020-01-09 05:00:00 2.3 3 Noroeste 7 Oeste 0 -- -- 100
2020-01-09 04:00:00 2.5 3 Norte 6 Norte 0 -- -- 100
2020-01-09 03:00:00 2.7 3 Noroeste 6 Noroeste 0 -- -- 100
2020-01-09 02:00:00 2.9 3 Norte 7 Noroeste 0 -- -- 99
2020-01-09 01:00:00 3 2 Este 6 Sudoeste 0 -- -- 99
2020-01-09 00:00:00 3.2 0 Calma 4 Sudoeste 0 -- -- 99
2020-01-08 23:00:00 3.2 3 Noroeste 6 Noroeste 0 -- -- 99
2020-01-08 22:00:00 3.4 4 Sur 7 Oeste 0 -- -- 99
2020-01-08 21:00:00 3.4 4 Noroeste 9 Oeste 0 -- -- 99
2020-01-08 20:00:00 3.3 5 Oeste 10 Sudoeste 0 -- -- 98
2020-01-08 19:00:00 3.5 8 Sudoeste 11 Oeste 0 -- -- 97
2020-01-08 18:00:00 3.8 5 Noroeste 8 Noroeste 0 -- -- 96
2020-01-08 17:00:00 3.9 7 Sudoeste 13 Sudoeste 0 -- -- 95
2020-01-08 16:00:00 4.2 3 Sudeste 8 Este 0 -- -- 94
2020-01-08 15:00:00 3.8 4 Este 11 Oeste 0 -- -- 95
2020-01-08 14:00:00 3.3 6 Oeste 12 Oeste 0 -- -- 96
2020-01-08 13:00:00 3 2 Sur 8 Este 0 -- -- 97
2020-01-08 12:00:00 2.8 6 Este 10 Sudeste 0 -- -- 97
2020-01-08 11:00:00 2.7 6 Este 15 Este 0 -- -- 97
2020-01-08 10:00:00 2.4 8 Este 12 Este 0 -- -- 97
2020-01-08 09:00:00 2.4 5 Nordeste 14 Nordeste 0 -- -- 98
2020-01-08 08:00:00 2.5 5 Nordeste 14 Este 0 -- -- 97
2020-01-08 07:00:00 2.7 5 Este 10 Este 0 -- -- 98
2020-01-08 06:00:00 2.8 3 Sudeste 8 Este 0 -- -- 98
2020-01-08 05:00:00 2.9 8 Este 10 Este 0 -- -- 98
2020-01-08 04:00:00 3.1 5 Este 8 Este 0 -- -- 97
2020-01-08 03:00:00 3.2 2 Sudeste 8 Este 0 -- -- 97
2020-01-08 02:00:00 3.3 6 Este 8 Este 0 -- -- 96
2020-01-08 01:00:00 3.3 6 Este 8 Este 0 -- -- 96
2020-01-08 00:00:00 3.3 3 Norte 8 Noroeste 0 -- -- 95
2020-01-07 23:00:00 3.4 5 Oeste 10 Oeste 0 -- -- 95
2020-01-07 22:00:00 3.5 2 Sudoeste 9 Este 0 -- -- 94
2020-01-07 21:00:00 3.6 6 Nordeste 12 Nordeste 0 -- -- 94
2020-01-07 20:00:00 3.7 8 Este 12 Este 0 -- -- 94
2020-01-07 19:00:00 3.9 5 Este 8 Este 0 -- -- 94
2020-01-07 18:00:00 3.8 0 Calma 7 Este 0 -- -- 93
2020-01-07 17:00:00 3.8 2 Nordeste 8 Nordeste 0 -- -- 93
2020-01-07 16:00:00 3.7 4 Este 8 Nordeste 0 -- -- 93
2020-01-07 15:00:00 3.7 4 Oeste 13 Oeste 0 -- -- 93
2020-01-07 14:00:00 3.5 3 Noroeste 10 Oeste 0 -- -- 94
2020-01-07 13:00:00 3.1 4 Este 6 Este 0 -- -- 95
2020-01-07 12:00:00 2.8 4 Nordeste 9 Nordeste 0 -- -- 95
2020-01-07 11:00:00 2.6 5 Nordeste 8 Nordeste 0 -- -- 96
2020-01-07 10:00:00 2.3 4 Sur 10 Oeste 0 -- -- 95
2020-01-07 09:00:00 2.4 2 Oeste 10 Oeste 0 -- -- 95
2020-01-07 08:00:00 2.6 5 Sudoeste 10 Oeste 0 -- -- 95
2020-01-07 07:00:00 2.9 5 Noroeste 9 Oeste 0 -- -- 96
2020-01-07 06:00:00 3 6 Noroeste 9 Noroeste 0 -- -- 97
2020-01-07 05:00:00 2.9 5 Oeste 8 Sur 0 -- -- 98
2020-01-07 04:00:00 3 5 Sudoeste 10 Sur 0 -- -- 97
2020-01-07 03:00:00 3.4 0 Calma 9 Oeste 0 -- -- 97
2020-01-07 02:00:00 3.6 5 Oeste 10 Oeste 0 -- -- 97
2020-01-07 01:00:00 3.8 4 Sur 12 Sur 0 -- -- 97
2020-01-07 00:00:00 3.9 5 Sur 13 Sudoeste 0 -- -- 97
2020-01-06 23:00:00 4.6 6 Sur 13 Sur 0 -- -- 96
2020-01-06 22:00:00 4.8 6 Sur 10 Sur 0 -- -- 96
2020-01-06 21:00:00 4.9 3 Sudeste 6 Sur 0 -- -- 96
2020-01-06 20:00:00 5 6 Sur 10 Sudeste 0 -- -- 95
2020-01-06 19:00:00 5.2 5 Sur 10 Sudoeste 0 -- -- 94
2020-01-06 18:00:00 5.5 4 Sur 10 Sur 0 -- -- 92
2020-01-06 17:00:00 5.9 4 Sur 9 Sur 0 -- -- 92
2020-01-06 16:00:00 5.8 5 Nordeste 11 Nordeste 0 -- -- 92
2020-01-06 15:00:00 5.9 5 Oeste 9 Noroeste 0 -- -- 91
2020-01-06 14:00:00 4.9 2 Oeste 7 Sudoeste 0 -- -- 96
2020-01-06 13:00:00 4.1 4 Noroeste 11 Noroeste 0 -- -- 97
2020-01-06 12:00:00 3.7 5 Sudoeste 10 Oeste 0 -- -- 99
2020-01-06 11:00:00 3.2 2 Sudeste 9 Oeste 0 -- -- 99
2020-01-06 10:00:00 2.5 5 Noroeste 10 Oeste 0 -- -- 99